sensor_id;sensor_type;location;lat;lon;timestamp;P1;durP1;ratioP1;P2;durP2;ratioP2
79460;SDS011;68929;42.666;23.324;2023-04-15T00:00:53;11.05;;;4.43;;
79460;SDS011;68929;42.666;23.324;2023-04-15T00:03:19;9.98;;;4.93;;
79460;SDS011;68929;42.666;23.324;2023-04-15T00:05:44;7.47;;;4.88;;
79460;SDS011;68929;42.666;23.324;2023-04-15T00:08:10;10.23;;;5.43;;
79460;SDS011;68929;42.666;23.324;2023-04-15T00:10:35;12.40;;;5.70;;
79460;SDS011;68929;42.666;23.324;2023-04-15T00:13:01;9.45;;;5.43;;
79460;SDS011;68929;42.666;23.324;2023-04-15T00:15:26;6.80;;;4.93;;
79460;SDS011;68929;42.666;23.324;2023-04-15T00:17:52;7.47;;;5.15;;
79460;SDS011;68929;42.666;23.324;2023-04-15T00:20:18;8.95;;;4.95;;
79460;SDS011;68929;42.666;23.324;2023-04-15T00:22:43;8.10;;;5.45;;
79460;SDS011;68929;42.666;23.324;2023-04-15T00:25:08;7.22;;;4.90;;
79460;SDS011;68929;42.666;23.324;2023-04-15T00:27:37;8.10;;;5.15;;
79460;SDS011;68929;42.666;23.324;2023-04-15T00:30:03;9.52;;;4.80;;
79460;SDS011;68929;42.666;23.324;2023-04-15T00:32:29;6.45;;;4.32;;
79460;SDS011;68929;42.666;23.324;2023-04-15T00:34:55;6.30;;;4.80;;
79460;SDS011;68929;42.666;23.324;2023-04-15T00:37:20;10.15;;;4.68;;
79460;SDS011;68929;42.666;23.324;2023-04-15T00:39:45;8.20;;;4.72;;
79460;SDS011;68929;42.666;23.324;2023-04-15T00:42:12;6.93;;;4.40;;
79460;SDS011;68929;42.666;23.324;2023-04-15T00:44:37;7.15;;;5.40;;
79460;SDS011;68929;42.666;23.324;2023-04-15T00:47:03;6.90;;;4.70;;
79460;SDS011;68929;42.666;23.324;2023-04-15T00:49:29;10.85;;;5.65;;
79460;SDS011;68929;42.666;23.324;2023-04-15T00:51:56;8.15;;;5.20;;
79460;SDS011;68929;42.666;23.324;2023-04-15T00:54:21;9.35;;;5.60;;
79460;SDS011;68929;42.666;23.324;2023-04-15T00:56:47;9.32;;;4.68;;
79460;SDS011;68929;42.666;23.324;2023-04-15T00:59:13;6.38;;;4.25;;
79460;SDS011;68929;42.666;23.324;2023-04-15T01:01:39;7.38;;;4.35;;
79460;SDS011;68929;42.666;23.324;2023-04-15T01:04:04;7.72;;;5.00;;
79460;SDS011;68929;42.666;23.324;2023-04-15T01:06:31;6.65;;;4.90;;
79460;SDS011;68929;42.666;23.324;2023-04-15T01:08:57;8.38;;;5.10;;
79460;SDS011;68929;42.666;23.324;2023-04-15T01:11:23;7.38;;;4.80;;
79460;SDS011;68929;42.666;23.324;2023-04-15T01:13:50;8.18;;;5.47;;
79460;SDS011;68929;42.666;23.324;2023-04-15T01:16:16;10.00;;;5.07;;
79460;SDS011;68929;42.666;23.324;2023-04-15T01:18:42;11.38;;;5.13;;
79460;SDS011;68929;42.666;23.324;2023-04-15T01:21:08;7.43;;;4.90;;
79460;SDS011;68929;42.666;23.324;2023-04-15T01:23:36;9.70;;;5.25;;
79460;SDS011;68929;42.666;23.324;2023-04-15T01:26:02;6.85;;;4.90;;
79460;SDS011;68929;42.666;23.324;2023-04-15T01:28:29;7.28;;;4.47;;
79460;SDS011;68929;42.666;23.324;2023-04-15T01:31:07;6.75;;;4.85;;
79460;SDS011;68929;42.666;23.324;2023-04-15T01:33:35;8.93;;;4.60;;
79460;SDS011;68929;42.666;23.324;2023-04-15T01:36:00;7.95;;;4.90;;
79460;SDS011;68929;42.666;23.324;2023-04-15T01:38:26;6.38;;;4.53;;
79460;SDS011;68929;42.666;23.324;2023-04-15T01:40:53;8.93;;;4.53;;
79460;SDS011;68929;42.666;23.324;2023-04-15T01:43:18;7.00;;;5.03;;
79460;SDS011;68929;42.666;23.324;2023-04-15T01:45:44;8.63;;;4.70;;
79460;SDS011;68929;42.666;23.324;2023-04-15T01:48:13;7.15;;;5.50;;
79460;SDS011;68929;42.666;23.324;2023-04-15T01:50:38;8.27;;;4.65;;
79460;SDS011;68929;42.666;23.324;2023-04-15T01:53:04;8.73;;;5.30;;
79460;SDS011;68929;42.666;23.324;2023-04-15T01:55:29;8.07;;;5.60;;
79460;SDS011;68929;42.666;23.324;2023-04-15T01:57:55;8.23;;;5.28;;
79460;SDS011;68929;42.666;23.324;2023-04-15T02:00:20;6.95;;;5.05;;
79460;SDS011;68929;42.666;23.324;2023-04-15T02:02:47;7.97;;;5.30;;
79460;SDS011;68929;42.666;23.324;2023-04-15T02:05:12;9.32;;;5.40;;
79460;SDS011;68929;42.666;23.324;2023-04-15T02:07:38;8.48;;;5.10;;
79460;SDS011;68929;42.666;23.324;2023-04-15T02:10:04;8.50;;;5.22;;
79460;SDS011;68929;42.666;23.324;2023-04-15T02:12:29;8.80;;;5.05;;
79460;SDS011;68929;42.666;23.324;2023-04-15T02:14:55;8.77;;;5.13;;
79460;SDS011;68929;42.666;23.324;2023-04-15T02:17:20;8.82;;;5.18;;
79460;SDS011;68929;42.666;23.324;2023-04-15T02:19:46;7.53;;;4.90;;
79460;SDS011;68929;42.666;23.324;2023-04-15T02:22:12;7.75;;;5.28;;
79460;SDS011;68929;42.666;23.324;2023-04-15T02:24:42;7.03;;;4.63;;
79460;SDS011;68929;42.666;23.324;2023-04-15T02:27:08;6.88;;;4.53;;
79460;SDS011;68929;42.666;23.324;2023-04-15T02:29:33;5.57;;;4.57;;
79460;SDS011;68929;42.666;23.324;2023-04-15T02:31:59;10.15;;;4.70;;
79460;SDS011;68929;42.666;23.324;2023-04-15T02:34:24;6.88;;;4.97;;
79460;SDS011;68929;42.666;23.324;2023-04-15T02:36:51;7.18;;;4.38;;
79460;SDS011;68929;42.666;23.324;2023-04-15T02:39:21;8.30;;;4.78;;
79460;SDS011;68929;42.666;23.324;2023-04-15T02:41:46;9.15;;;5.60;;
79460;SDS011;68929;42.666;23.324;2023-04-15T02:44:15;8.00;;;5.07;;
79460;SDS011;68929;42.666;23.324;2023-04-15T02:46:44;8.57;;;5.35;;
79460;SDS011;68929;42.666;23.324;2023-04-15T02:49:12;7.07;;;5.15;;
79460;SDS011;68929;42.666;23.324;2023-04-15T02:51:38;6.57;;;4.60;;
79460;SDS011;68929;42.666;23.324;2023-04-15T02:54:03;6.90;;;4.88;;
79460;SDS011;68929;42.666;23.324;2023-04-15T02:56:29;7.90;;;4.97;;
79460;SDS011;68929;42.666;23.324;2023-04-15T02:58:54;7.93;;;5.35;;
79460;SDS011;68929;42.666;23.324;2023-04-15T03:01:20;12.73;;;7.25;;
79460;SDS011;68929;42.666;23.324;2023-04-15T03:03:46;7.97;;;5.20;;
79460;SDS011;68929;42.666;23.324;2023-04-15T03:06:11;7.05;;;5.80;;
79460;SDS011;68929;42.666;23.324;2023-04-15T03:08:37;9.13;;;7.05;;
79460;SDS011;68929;42.666;23.324;2023-04-15T03:11:02;10.20;;;5.72;;
79460;SDS011;68929;42.666;23.324;2023-04-15T03:13:28;8.32;;;5.50;;
79460;SDS011;68929;42.666;23.324;2023-04-15T03:15:54;9.23;;;6.80;;
79460;SDS011;68929;42.666;23.324;2023-04-15T03:18:19;7.32;;;6.18;;
79460;SDS011;68929;42.666;23.324;2023-04-15T03:20:45;9.90;;;6.15;;
79460;SDS011;68929;42.666;23.324;2023-04-15T03:23:11;9.85;;;6.15;;
79460;SDS011;68929;42.666;23.324;2023-04-15T03:25:36;12.00;;;7.05;;
79460;SDS011;68929;42.666;23.324;2023-04-15T03:28:02;8.65;;;6.20;;
79460;SDS011;68929;42.666;23.324;2023-04-15T03:30:27;9.75;;;6.30;;
79460;SDS011;68929;42.666;23.324;2023-04-15T03:32:53;9.65;;;6.07;;
79460;SDS011;68929;42.666;23.324;2023-04-15T03:35:18;8.07;;;6.25;;
79460;SDS011;68929;42.666;23.324;2023-04-15T03:37:43;11.20;;;7.13;;
79460;SDS011;68929;42.666;23.324;2023-04-15T03:40:09;9.13;;;5.95;;
79460;SDS011;68929;42.666;23.324;2023-04-15T03:42:35;8.25;;;6.00;;
79460;SDS011;68929;42.666;23.324;2023-04-15T03:45:00;8.35;;;5.70;;
79460;SDS011;68929;42.666;23.324;2023-04-15T03:47:25;9.68;;;5.72;;
79460;SDS011;68929;42.666;23.324;2023-04-15T03:49:51;8.88;;;6.35;;
79460;SDS011;68929;42.666;23.324;2023-04-15T03:52:16;10.70;;;7.28;;
79460;SDS011;68929;42.666;23.324;2023-04-15T03:54:42;8.48;;;5.95;;
79460;SDS011;68929;42.666;23.324;2023-04-15T03:57:07;9.80;;;6.70;;
79460;SDS011;68929;42.666;23.324;2023-04-15T03:59:33;13.40;;;7.63;;
79460;SDS011;68929;42.666;23.324;2023-04-15T04:01:58;12.10;;;7.80;;
79460;SDS011;68929;42.666;23.324;2023-04-15T04:04:23;10.80;;;7.68;;
79460;SDS011;68929;42.666;23.324;2023-04-15T04:06:49;10.38;;;7.32;;
79460;SDS011;68929;42.666;23.324;2023-04-15T04:09:15;9.98;;;7.43;;
79460;SDS011;68929;42.666;23.324;2023-04-15T04:11:40;14.55;;;7.75;;
79460;SDS011;68929;42.666;23.324;2023-04-15T04:14:05;10.10;;;7.03;;
79460;SDS011;68929;42.666;23.324;2023-04-15T04:16:31;9.60;;;6.90;;
79460;SDS011;68929;42.666;23.324;2023-04-15T04:18:56;10.80;;;7.38;;
79460;SDS011;68929;42.666;23.324;2023-04-15T04:21:21;10.18;;;6.90;;
79460;SDS011;68929;42.666;23.324;2023-04-15T04:23:47;13.90;;;9.07;;
79460;SDS011;68929;42.666;23.324;2023-04-15T04:26:12;8.73;;;6.57;;
79460;SDS011;68929;42.666;23.324;2023-04-15T04:28:38;10.18;;;7.28;;
79460;SDS011;68929;42.666;23.324;2023-04-15T04:31:05;9.73;;;6.55;;
79460;SDS011;68929;42.666;23.324;2023-04-15T04:33:31;8.43;;;6.57;;
79460;SDS011;68929;42.666;23.324;2023-04-15T04:35:57;9.43;;;6.90;;
79460;SDS011;68929;42.666;23.324;2023-04-15T04:38:22;8.40;;;6.82;;
79460;SDS011;68929;42.666;23.324;2023-04-15T04:40:48;8.70;;;6.03;;
79460;SDS011;68929;42.666;23.324;2023-04-15T04:43:13;7.18;;;6.22;;
79460;SDS011;68929;42.666;23.324;2023-04-15T04:45:39;8.80;;;6.60;;
79460;SDS011;68929;42.666;23.324;2023-04-15T04:48:05;13.85;;;6.18;;
79460;SDS011;68929;42.666;23.324;2023-04-15T04:50:32;11.88;;;6.65;;
79460;SDS011;68929;42.666;23.324;2023-04-15T04:52:59;9.73;;;6.50;;
79460;SDS011;68929;42.666;23.324;2023-04-15T04:55:24;9.55;;;6.65;;
79460;SDS011;68929;42.666;23.324;2023-04-15T04:57:51;10.43;;;6.75;;
79460;SDS011;68929;42.666;23.324;2023-04-15T05:00:16;10.15;;;7.38;;
79460;SDS011;68929;42.666;23.324;2023-04-15T05:02:42;10.40;;;6.88;;
79460;SDS011;68929;42.666;23.324;2023-04-15T05:05:09;11.40;;;7.80;;
79460;SDS011;68929;42.666;23.324;2023-04-15T05:07:36;11.10;;;7.00;;
79460;SDS011;68929;42.666;23.324;2023-04-15T05:10:02;10.30;;;7.63;;
79460;SDS011;68929;42.666;23.324;2023-04-15T05:12:30;9.27;;;7.30;;
79460;SDS011;68929;42.666;23.324;2023-04-15T05:14:56;9.93;;;7.25;;
79460;SDS011;68929;42.666;23.324;2023-04-15T05:17:21;11.05;;;7.55;;
79460;SDS011;68929;42.666;23.324;2023-04-15T05:19:47;10.85;;;6.82;;
79460;SDS011;68929;42.666;23.324;2023-04-15T05:22:12;13.70;;;7.35;;
79460;SDS011;68929;42.666;23.324;2023-04-15T05:24:38;7.47;;;6.35;;
79460;SDS011;68929;42.666;23.324;2023-04-15T05:27:03;8.75;;;6.45;;
79460;SDS011;68929;42.666;23.324;2023-04-15T05:29:29;10.68;;;6.63;;
79460;SDS011;68929;42.666;23.324;2023-04-15T05:31:54;10.57;;;7.28;;
79460;SDS011;68929;42.666;23.324;2023-04-15T05:34:20;9.13;;;7.00;;
79460;SDS011;68929;42.666;23.324;2023-04-15T05:36:46;11.93;;;6.95;;
79460;SDS011;68929;42.666;23.324;2023-04-15T05:39:11;7.03;;;6.03;;
79460;SDS011;68929;42.666;23.324;2023-04-15T05:41:37;11.38;;;7.45;;
79460;SDS011;68929;42.666;23.324;2023-04-15T05:44:03;9.02;;;6.40;;
79460;SDS011;68929;42.666;23.324;2023-04-15T05:46:28;10.10;;;6.82;;
79460;SDS011;68929;42.666;23.324;2023-04-15T05:48:54;8.05;;;5.78;;
79460;SDS011;68929;42.666;23.324;2023-04-15T05:51:19;7.90;;;5.97;;
79460;SDS011;68929;42.666;23.324;2023-04-15T05:53:45;9.43;;;6.80;;
79460;SDS011;68929;42.666;23.324;2023-04-15T05:56:10;8.88;;;5.90;;
79460;SDS011;68929;42.666;23.324;2023-04-15T05:58:36;7.50;;;5.20;;
79460;SDS011;68929;42.666;23.324;2023-04-15T06:01:01;6.43;;;5.07;;
79460;SDS011;68929;42.666;23.324;2023-04-15T06:03:28;7.82;;;5.90;;
79460;SDS011;68929;42.666;23.324;2023-04-15T06:05:54;8.85;;;5.65;;
79460;SDS011;68929;42.666;23.324;2023-04-15T06:08:20;10.27;;;6.18;;
79460;SDS011;68929;42.666;23.324;2023-04-15T06:10:46;11.23;;;6.47;;
79460;SDS011;68929;42.666;23.324;2023-04-15T06:13:11;8.30;;;5.63;;
79460;SDS011;68929;42.666;23.324;2023-04-15T06:15:37;9.23;;;6.18;;
79460;SDS011;68929;42.666;23.324;2023-04-15T06:18:03;8.20;;;6.38;;
79460;SDS011;68929;42.666;23.324;2023-04-15T06:20:28;7.50;;;5.38;;
79460;SDS011;68929;42.666;23.324;2023-04-15T06:22:53;8.68;;;5.60;;
79460;SDS011;68929;42.666;23.324;2023-04-15T06:25:19;7.70;;;5.32;;
79460;SDS011;68929;42.666;23.324;2023-04-15T06:27:45;7.85;;;5.75;;
79460;SDS011;68929;42.666;23.324;2023-04-15T06:30:10;7.07;;;4.95;;
79460;SDS011;68929;42.666;23.324;2023-04-15T06:32:36;6.45;;;4.65;;
79460;SDS011;68929;42.666;23.324;2023-04-15T06:35:01;8.40;;;4.57;;
79460;SDS011;68929;42.666;23.324;2023-04-15T06:37:28;6.32;;;4.45;;
79460;SDS011;68929;42.666;23.324;2023-04-15T06:39:53;7.13;;;4.47;;
79460;SDS011;68929;42.666;23.324;2023-04-15T06:42:18;9.68;;;4.53;;
79460;SDS011;68929;42.666;23.324;2023-04-15T06:44:44;9.38;;;4.97;;
79460;SDS011;68929;42.666;23.324;2023-04-15T06:47:09;7.97;;;5.50;;
79460;SDS011;68929;42.666;23.324;2023-04-15T06:49:37;9.23;;;5.93;;
79460;SDS011;68929;42.666;23.324;2023-04-15T06:52:02;6.82;;;5.10;;
79460;SDS011;68929;42.666;23.324;2023-04-15T06:54:29;9.90;;;6.63;;
79460;SDS011;68929;42.666;23.324;2023-04-15T06:56:54;8.48;;;5.72;;
79460;SDS011;68929;42.666;23.324;2023-04-15T06:59:20;9.00;;;5.57;;
79460;SDS011;68929;42.666;23.324;2023-04-15T07:01:45;6.60;;;5.60;;
79460;SDS011;68929;42.666;23.324;2023-04-15T07:04:11;12.38;;;6.20;;
79460;SDS011;68929;42.666;23.324;2023-04-15T07:06:37;6.43;;;5.35;;
79460;SDS011;68929;42.666;23.324;2023-04-15T07:09:02;7.88;;;5.53;;
79460;SDS011;68929;42.666;23.324;2023-04-15T07:11:29;8.73;;;5.22;;
79460;SDS011;68929;42.666;23.324;2023-04-15T07:13:56;10.07;;;5.68;;
79460;SDS011;68929;42.666;23.324;2023-04-15T07:16:22;7.55;;;5.15;;
79460;SDS011;68929;42.666;23.324;2023-04-15T07:18:47;8.13;;;5.18;;
79460;SDS011;68929;42.666;23.324;2023-04-15T07:21:13;10.93;;;6.10;;
79460;SDS011;68929;42.666;23.324;2023-04-15T07:23:38;8.18;;;5.15;;
79460;SDS011;68929;42.666;23.324;2023-04-15T07:26:04;10.57;;;5.70;;
79460;SDS011;68929;42.666;23.324;2023-04-15T07:28:29;7.78;;;5.05;;
79460;SDS011;68929;42.666;23.324;2023-04-15T07:30:55;7.07;;;4.53;;
79460;SDS011;68929;42.666;23.324;2023-04-15T07:33:23;5.53;;;4.68;;
79460;SDS011;68929;42.666;23.324;2023-04-15T07:35:49;7.95;;;4.53;;
79460;SDS011;68929;42.666;23.324;2023-04-15T07:38:15;7.13;;;5.07;;
79460;SDS011;68929;42.666;23.324;2023-04-15T07:40:40;7.70;;;5.55;;
79460;SDS011;68929;42.666;23.324;2023-04-15T07:43:06;7.97;;;4.38;;
79460;SDS011;68929;42.666;23.324;2023-04-15T07:45:32;9.90;;;5.10;;
79460;SDS011;68929;42.666;23.324;2023-04-15T07:47:59;7.47;;;5.05;;
79460;SDS011;68929;42.666;23.324;2023-04-15T07:50:26;6.38;;;4.22;;
79460;SDS011;68929;42.666;23.324;2023-04-15T07:52:51;6.35;;;5.28;;
79460;SDS011;68929;42.666;23.324;2023-04-15T07:55:17;10.30;;;5.80;;
79460;SDS011;68929;42.666;23.324;2023-04-15T07:57:45;8.05;;;4.40;;
79460;SDS011;68929;42.666;23.324;2023-04-15T08:00:11;6.60;;;4.35;;
79460;SDS011;68929;42.666;23.324;2023-04-15T08:02:37;6.47;;;4.18;;
79460;SDS011;68929;42.666;23.324;2023-04-15T08:05:03;5.78;;;4.60;;
79460;SDS011;68929;42.666;23.324;2023-04-15T08:07:29;7.00;;;4.47;;
79460;SDS011;68929;42.666;23.324;2023-04-15T08:09:55;9.05;;;5.55;;
79460;SDS011;68929;42.666;23.324;2023-04-15T08:12:20;11.13;;;5.47;;
79460;SDS011;68929;42.666;23.324;2023-04-15T08:14:46;7.68;;;4.25;;
79460;SDS011;68929;42.666;23.324;2023-04-15T08:17:12;9.18;;;5.22;;
79460;SDS011;68929;42.666;23.324;2023-04-15T08:19:37;6.93;;;4.13;;
79460;SDS011;68929;42.666;23.324;2023-04-15T08:22:04;5.22;;;3.50;;
79460;SDS011;68929;42.666;23.324;2023-04-15T08:24:30;4.40;;;3.58;;
79460;SDS011;68929;42.666;23.324;2023-04-15T08:26:56;7.53;;;3.22;;
79460;SDS011;68929;42.666;23.324;2023-04-15T08:29:22;5.97;;;4.05;;
79460;SDS011;68929;42.666;23.324;2023-04-15T08:31:47;4.07;;;2.72;;
79460;SDS011;68929;42.666;23.324;2023-04-15T08:34:13;5.38;;;2.97;;
79460;SDS011;68929;42.666;23.324;2023-04-15T08:36:39;5.88;;;3.88;;
79460;SDS011;68929;42.666;23.324;2023-04-15T08:39:05;5.70;;;3.28;;
79460;SDS011;68929;42.666;23.324;2023-04-15T08:41:43;12.13;;;4.43;;
79460;SDS011;68929;42.666;23.324;2023-04-15T08:44:14;5.97;;;3.38;;
79460;SDS011;68929;42.666;23.324;2023-04-15T08:46:40;8.75;;;3.00;;
79460;SDS011;68929;42.666;23.324;2023-04-15T08:49:09;6.30;;;3.00;;
79460;SDS011;68929;42.666;23.324;2023-04-15T08:51:36;5.13;;;3.35;;
79460;SDS011;68929;42.666;23.324;2023-04-15T08:54:04;5.97;;;3.00;;
79460;SDS011;68929;42.666;23.324;2023-04-15T08:56:30;4.57;;;3.05;;
79460;SDS011;68929;42.666;23.324;2023-04-15T08:58:58;5.55;;;2.67;;
79460;SDS011;68929;42.666;23.324;2023-04-15T09:01:24;5.22;;;2.72;;
79460;SDS011;68929;42.666;23.324;2023-04-15T09:03:50;4.53;;;2.40;;
79460;SDS011;68929;42.666;23.324;2023-04-15T09:06:17;3.05;;;1.70;;
79460;SDS011;68929;42.666;23.324;2023-04-15T09:08:42;6.80;;;1.73;;
79460;SDS011;68929;42.666;23.324;2023-04-15T09:11:08;5.30;;;3.22;;
79460;SDS011;68929;42.666;23.324;2023-04-15T09:13:35;5.10;;;3.20;;
79460;SDS011;68929;42.666;23.324;2023-04-15T09:16:01;4.78;;;3.33;;
79460;SDS011;68929;42.666;23.324;2023-04-15T09:18:31;5.35;;;3.30;;
79460;SDS011;68929;42.666;23.324;2023-04-15T09:21:08;4.35;;;3.00;;
79460;SDS011;68929;42.666;23.324;2023-04-15T09:23:36;4.03;;;3.03;;
79460;SDS011;68929;42.666;23.324;2023-04-15T09:26:04;5.43;;;2.65;;
79460;SDS011;68929;42.666;23.324;2023-04-15T09:28:30;4.75;;;2.85;;
79460;SDS011;68929;42.666;23.324;2023-04-15T09:30:56;3.92;;;2.58;;
79460;SDS011;68929;42.666;23.324;2023-04-15T09:33:23;5.40;;;2.63;;
79460;SDS011;68929;42.666;23.324;2023-04-15T09:38:23;3.83;;;2.28;;
79460;SDS011;68929;42.666;23.324;2023-04-15T09:40:49;4.07;;;2.60;;
79460;SDS011;68929;42.666;23.324;2023-04-15T09:43:15;2.67;;;1.73;;
79460;SDS011;68929;42.666;23.324;2023-04-15T09:45:48;2.85;;;1.58;;
79460;SDS011;68929;42.666;23.324;2023-04-15T09:48:24;2.92;;;1.73;;
79460;SDS011;68929;42.666;23.324;2023-04-15T09:50:58;4.50;;;3.10;;
79460;SDS011;68929;42.666;23.324;2023-04-15T09:53:25;4.57;;;2.80;;
79460;SDS011;68929;42.666;23.324;2023-04-15T09:55:52;4.80;;;2.65;;
79460;SDS011;68929;42.666;23.324;2023-04-15T09:58:25;1.85;;;1.65;;
79460;SDS011;68929;42.666;23.324;2023-04-15T10:01:04;2.08;;;1.20;;
79460;SDS011;68929;42.666;23.324;2023-04-15T10:03:32;7.53;;;1.60;;
79460;SDS011;68929;42.666;23.324;2023-04-15T10:06:02;2.50;;;1.27;;
79460;SDS011;68929;42.666;23.324;2023-04-15T10:08:32;2.38;;;1.05;;
79460;SDS011;68929;42.666;23.324;2023-04-15T10:11:01;3.40;;;1.30;;
79460;SDS011;68929;42.666;23.324;2023-04-15T10:13:29;2.72;;;1.77;;
79460;SDS011;68929;42.666;23.324;2023-04-15T10:16:10;2.55;;;1.20;;
79460;SDS011;68929;42.666;23.324;2023-04-15T10:18:43;2.28;;;1.42;;
79460;SDS011;68929;42.666;23.324;2023-04-15T10:21:10;3.22;;;1.15;;
79460;SDS011;68929;42.666;23.324;2023-04-15T10:23:38;2.85;;;1.40;;
79460;SDS011;68929;42.666;23.324;2023-04-15T10:26:04;2.35;;;1.60;;
79460;SDS011;68929;42.666;23.324;2023-04-15T10:28:30;2.80;;;1.30;;
79460;SDS011;68929;42.666;23.324;2023-04-15T10:30:56;3.38;;;1.40;;
79460;SDS011;68929;42.666;23.324;2023-04-15T10:33:22;2.90;;;1.20;;
79460;SDS011;68929;42.666;23.324;2023-04-15T10:35:49;1.98;;;1.17;;
79460;SDS011;68929;42.666;23.324;2023-04-15T10:41:13;1.95;;;1.35;;
79460;SDS011;68929;42.666;23.324;2023-04-15T10:46:40;2.08;;;1.20;;
79460;SDS011;68929;42.666;23.324;2023-04-15T10:49:08;3.47;;;1.30;;
79460;SDS011;68929;42.666;23.324;2023-04-15T10:51:44;1.80;;;1.40;;
79460;SDS011;68929;42.666;23.324;2023-04-15T10:54:14;4.57;;;1.30;;
79460;SDS011;68929;42.666;23.324;2023-04-15T10:56:44;3.57;;;1.23;;
79460;SDS011;68929;42.666;23.324;2023-04-15T10:59:15;3.28;;;1.50;;
79460;SDS011;68929;42.666;23.324;2023-04-15T11:01:54;3.53;;;1.45;;
79460;SDS011;68929;42.666;23.324;2023-04-15T11:07:31;2.78;;;1.30;;
79460;SDS011;68929;42.666;23.324;2023-04-15T11:18:16;2.22;;;1.30;;
79460;SDS011;68929;42.666;23.324;2023-04-15T11:23:16;2.40;;;1.10;;
79460;SDS011;68929;42.666;23.324;2023-04-15T11:25:43;2.33;;;1.30;;
79460;SDS011;68929;42.666;23.324;2023-04-15T11:28:09;2.22;;;1.30;;
79460;SDS011;68929;42.666;23.324;2023-04-15T11:30:36;2.40;;;1.35;;
79460;SDS011;68929;42.666;23.324;2023-04-15T11:33:03;4.63;;;1.40;;
79460;SDS011;68929;42.666;23.324;2023-04-15T11:35:33;3.45;;;1.23;;
79460;SDS011;68929;42.666;23.324;2023-04-15T11:38:03;3.75;;;1.50;;
79460;SDS011;68929;42.666;23.324;2023-04-15T11:40:30;2.30;;;1.30;;
79460;SDS011;68929;42.666;23.324;2023-04-15T11:45:49;4.60;;;0.95;;
79460;SDS011;68929;42.666;23.324;2023-04-15T11:48:28;3.30;;;1.25;;
79460;SDS011;68929;42.666;23.324;2023-04-15T11:50:59;2.15;;;1.20;;
79460;SDS011;68929;42.666;23.324;2023-04-15T11:56:10;1.55;;;0.90;;
79460;SDS011;68929;42.666;23.324;2023-04-15T11:58:50;1.70;;;1.00;;
79460;SDS011;68929;42.666;23.324;2023-04-15T12:01:17;5.15;;;1.30;;
79460;SDS011;68929;42.666;23.324;2023-04-15T12:03:46;2.92;;;1.38;;
79460;SDS011;68929;42.666;23.324;2023-04-15T12:06:19;2.05;;;1.10;;
79460;SDS011;68929;42.666;23.324;2023-04-15T12:11:12;5.72;;;1.30;;
79460;SDS011;68929;42.666;23.324;2023-04-15T12:13:38;3.53;;;1.08;;
79460;SDS011;68929;42.666;23.324;2023-04-15T12:16:28;2.22;;;1.33;;
79460;SDS011;68929;42.666;23.324;2023-04-15T12:18:57;5.07;;;1.25;;
79460;SDS011;68929;42.666;23.324;2023-04-15T12:21:24;3.13;;;1.30;;
79460;SDS011;68929;42.666;23.324;2023-04-15T12:23:53;2.38;;;1.30;;
79460;SDS011;68929;42.666;23.324;2023-04-15T12:26:26;3.67;;;1.20;;
79460;SDS011;68929;42.666;23.324;2023-04-15T12:29:03;1.83;;;1.00;;
79460;SDS011;68929;42.666;23.324;2023-04-15T12:31:31;1.30;;;0.88;;
79460;SDS011;68929;42.666;23.324;2023-04-15T12:33:58;3.60;;;1.58;;
79460;SDS011;68929;42.666;23.324;2023-04-15T12:36:25;2.67;;;1.30;;
79460;SDS011;68929;42.666;23.324;2023-04-15T12:38:51;2.05;;;1.00;;
79460;SDS011;68929;42.666;23.324;2023-04-15T12:41:16;2.35;;;1.00;;
79460;SDS011;68929;42.666;23.324;2023-04-15T12:43:44;1.33;;;1.15;;
79460;SDS011;68929;42.666;23.324;2023-04-15T12:46:11;2.28;;;1.40;;
79460;SDS011;68929;42.666;23.324;2023-04-15T12:48:37;1.73;;;0.98;;
79460;SDS011;68929;42.666;23.324;2023-04-15T12:51:02;2.63;;;1.35;;
79460;SDS011;68929;42.666;23.324;2023-04-15T12:53:28;1.45;;;1.17;;
79460;SDS011;68929;42.666;23.324;2023-04-15T12:55:53;1.95;;;1.08;;
79460;SDS011;68929;42.666;23.324;2023-04-15T12:58:19;1.65;;;1.10;;
79460;SDS011;68929;42.666;23.324;2023-04-15T13:00:45;3.20;;;1.38;;
79460;SDS011;68929;42.666;23.324;2023-04-15T13:03:10;2.45;;;1.10;;
79460;SDS011;68929;42.666;23.324;2023-04-15T13:05:37;2.53;;;1.08;;
79460;SDS011;68929;42.666;23.324;2023-04-15T13:08:04;2.22;;;1.20;;
79460;SDS011;68929;42.666;23.324;2023-04-15T13:10:32;2.25;;;1.20;;
79460;SDS011;68929;42.666;23.324;2023-04-15T13:13:00;3.60;;;1.10;;
79460;SDS011;68929;42.666;23.324;2023-04-15T13:15:26;1.63;;;1.10;;
79460;SDS011;68929;42.666;23.324;2023-04-15T13:17:51;1.45;;;1.13;;
79460;SDS011;68929;42.666;23.324;2023-04-15T13:20:16;1.67;;;0.80;;
79460;SDS011;68929;42.666;23.324;2023-04-15T13:22:42;1.40;;;1.00;;
79460;SDS011;68929;42.666;23.324;2023-04-15T13:25:08;2.00;;;1.05;;
79460;SDS011;68929;42.666;23.324;2023-04-15T13:27:33;1.38;;;1.05;;
79460;SDS011;68929;42.666;23.324;2023-04-15T13:29:59;1.92;;;1.08;;
79460;SDS011;68929;42.666;23.324;2023-04-15T13:32:24;0.93;;;0.80;;
79460;SDS011;68929;42.666;23.324;2023-04-15T13:34:51;1.40;;;1.00;;
79460;SDS011;68929;42.666;23.324;2023-04-15T13:37:16;1.80;;;1.13;;
79460;SDS011;68929;42.666;23.324;2023-04-15T13:39:42;1.95;;;0.90;;
79460;SDS011;68929;42.666;23.324;2023-04-15T13:42:07;2.65;;;1.25;;
79460;SDS011;68929;42.666;23.324;2023-04-15T13:44:33;1.63;;;0.77;;
79460;SDS011;68929;42.666;23.324;2023-04-15T13:46:59;3.78;;;1.00;;
79460;SDS011;68929;42.666;23.324;2023-04-15T13:49:24;1.58;;;1.00;;
79460;SDS011;68929;42.666;23.324;2023-04-15T13:51:50;2.13;;;1.02;;
79460;SDS011;68929;42.666;23.324;2023-04-15T13:54:16;2.95;;;0.80;;
79460;SDS011;68929;42.666;23.324;2023-04-15T13:56:41;1.92;;;1.05;;
79460;SDS011;68929;42.666;23.324;2023-04-15T13:59:06;3.83;;;1.00;;
79460;SDS011;68929;42.666;23.324;2023-04-15T14:01:33;6.03;;;1.45;;
79460;SDS011;68929;42.666;23.324;2023-04-15T14:04:01;1.70;;;1.00;;
79460;SDS011;68929;42.666;23.324;2023-04-15T14:06:27;2.63;;;1.20;;
79460;SDS011;68929;42.666;23.324;2023-04-15T14:08:53;2.72;;;1.20;;
79460;SDS011;68929;42.666;23.324;2023-04-15T14:11:18;1.80;;;1.00;;
79460;SDS011;68929;42.666;23.324;2023-04-15T14:13:44;2.97;;;1.15;;
79460;SDS011;68929;42.666;23.324;2023-04-15T14:16:09;5.68;;;1.05;;
79460;SDS011;68929;42.666;23.324;2023-04-15T14:18:35;4.00;;;1.30;;
79460;SDS011;68929;42.666;23.324;2023-04-15T14:21:01;1.38;;;0.90;;
79460;SDS011;68929;42.666;23.324;2023-04-15T14:23:27;4.45;;;1.20;;
79460;SDS011;68929;42.666;23.324;2023-04-15T14:25:53;2.47;;;1.10;;
79460;SDS011;68929;42.666;23.324;2023-04-15T14:28:18;1.30;;;0.80;;
79460;SDS011;68929;42.666;23.324;2023-04-15T14:30:44;4.40;;;1.23;;
79460;SDS011;68929;42.666;23.324;2023-04-15T14:33:10;2.42;;;1.13;;
79460;SDS011;68929;42.666;23.324;2023-04-15T14:35:35;1.45;;;0.80;;
79460;SDS011;68929;42.666;23.324;2023-04-15T14:38:00;1.50;;;0.82;;
79460;SDS011;68929;42.666;23.324;2023-04-15T14:40:26;2.50;;;1.05;;
79460;SDS011;68929;42.666;23.324;2023-04-15T14:42:51;1.80;;;0.90;;
79460;SDS011;68929;42.666;23.324;2023-04-15T14:45:17;2.72;;;1.15;;
79460;SDS011;68929;42.666;23.324;2023-04-15T14:47:42;1.48;;;1.05;;
79460;SDS011;68929;42.666;23.324;2023-04-15T14:50:08;1.77;;;1.00;;
79460;SDS011;68929;42.666;23.324;2023-04-15T14:52:34;2.53;;;0.95;;
79460;SDS011;68929;42.666;23.324;2023-04-15T14:55:06;3.20;;;1.20;;
79460;SDS011;68929;42.666;23.324;2023-04-15T14:57:32;1.75;;;1.00;;
79460;SDS011;68929;42.666;23.324;2023-04-15T14:59:58;2.70;;;0.90;;